createdAt,value
2018-12-03T00:01:29.626Z,9.60
2018-12-03T00:03:59.138Z,9.70
2018-12-03T00:06:26.713Z,9.80
2018-12-03T00:08:54.110Z,9.80
2018-12-03T00:11:21.465Z,9.90
2018-12-03T00:13:48.809Z,9.90
2018-12-03T00:16:16.177Z,10.00
2018-12-03T00:18:43.538Z,10.00
2018-12-03T00:21:11.010Z,10.10
2018-12-03T00:23:38.458Z,10.00
2018-12-03T00:26:06.169Z,10.10
2018-12-03T00:28:33.572Z,10.00
2018-12-03T00:31:00.912Z,10.00
2018-12-03T00:33:28.316Z,10.10
2018-12-03T00:35:55.696Z,10.00
2018-12-03T00:38:23.121Z,10.00
2018-12-03T00:40:50.489Z,10.00
2018-12-03T00:43:17.841Z,10.00
2018-12-03T00:45:45.265Z,10.00
2018-12-03T00:48:12.633Z,10.10
2018-12-03T00:50:40.112Z,10.10
2018-12-03T00:53:07.549Z,10.10
2018-12-03T00:55:34.997Z,10.20
2018-12-03T00:58:02.349Z,10.10
2018-12-03T01:00:29.700Z,10.20
2018-12-03T01:02:57.066Z,10.20
2018-12-03T01:05:24.416Z,10.10
2018-12-03T01:07:52.001Z,10.10
2018-12-03T01:10:19.433Z,10.10
2018-12-03T01:12:46.921Z,10.00
2018-12-03T01:15:14.261Z,10.10
2018-12-03T01:17:41.717Z,10.10
2018-12-03T01:20:10.230Z,10.10
2018-12-03T01:22:37.585Z,10.10
2018-12-03T01:25:04.945Z,10.20
2018-12-03T01:27:32.312Z,10.20
2018-12-03T01:29:59.754Z,10.20
2018-12-03T01:32:27.181Z,10.30
2018-12-03T01:34:54.529Z,10.30
2018-12-03T01:37:21.914Z,10.20
2018-12-03T01:39:49.335Z,10.20
2018-12-03T01:42:16.709Z,10.20
2018-12-03T01:44:44.158Z,10.20
2018-12-03T01:47:11.629Z,10.30
2018-12-03T01:49:38.973Z,10.30
2018-12-03T01:52:06.333Z,10.40
2018-12-03T01:54:33.773Z,10.40
2018-12-03T01:57:01.245Z,10.50
2018-12-03T01:59:28.621Z,10.50
2018-12-03T02:01:55.962Z,10.60
2018-12-03T02:04:23.418Z,10.60
2018-12-03T02:06:50.859Z,10.60
2018-12-03T02:09:18.333Z,10.70
2018-12-03T02:11:45.778Z,10.60
2018-12-03T02:14:13.141Z,10.60
2018-12-03T02:16:40.496Z,10.60
2018-12-03T02:19:07.842Z,10.60
2018-12-03T02:21:35.197Z,10.60
2018-12-03T02:24:02.560Z,10.60
2018-12-03T02:26:29.905Z,10.60
2018-12-03T02:28:57.269Z,10.60
2018-12-03T02:31:24.625Z,10.70
2018-12-03T02:33:51.998Z,10.70
2018-12-03T02:36:19.573Z,10.70
2018-12-03T02:38:47.068Z,10.70
2018-12-03T02:41:14.926Z,10.70
2018-12-03T02:43:42.283Z,10.70
2018-12-03T02:46:09.697Z,10.80
2018-12-03T02:48:38.058Z,10.80
2018-12-03T02:51:06.153Z,10.80
2018-12-03T02:53:33.522Z,10.80
2018-12-03T02:56:00.866Z,10.80
2018-12-03T02:58:28.304Z,10.80
2018-12-03T03:00:55.745Z,10.80
2018-12-03T03:03:23.139Z,10.90
2018-12-03T03:05:50.560Z,10.90
2018-12-03T03:08:18.047Z,10.90
2018-12-03T03:10:45.394Z,10.90
2018-12-03T03:13:12.833Z,10.90
2018-12-03T03:15:40.894Z,11.00
2018-12-03T03:18:08.271Z,11.10
2018-12-03T03:20:35.649Z,11.10
2018-12-03T03:23:03.075Z,11.10
2018-12-03T03:25:30.550Z,11.10
2018-12-03T03:27:57.994Z,11.10
2018-12-03T03:30:25.454Z,11.10
2018-12-03T03:32:52.910Z,11.10
2018-12-03T03:35:20.360Z,11.10
2018-12-03T03:37:47.713Z,11.10
2018-12-03T03:40:15.425Z,11.10
2018-12-03T03:42:43.485Z,11.10
2018-12-03T03:45:11.690Z,11.20
2018-12-03T03:47:39.086Z,11.20
2018-12-03T03:50:07.006Z,11.20
2018-12-03T03:52:34.409Z,11.20
2018-12-03T03:55:01.789Z,11.20
2018-12-03T03:57:29.217Z,11.20
2018-12-03T03:59:56.595Z,11.20
2018-12-03T04:02:24.069Z,11.20
2018-12-03T04:04:51.521Z,11.20
2018-12-03T04:07:18.945Z,11.20
2018-12-03T04:09:46.426Z,11.10
2018-12-03T04:12:13.783Z,11.20
2018-12-03T04:14:41.145Z,11.20
2018-12-03T04:17:08.572Z,11.20
2018-12-03T04:19:35.957Z,11.20
2018-12-03T04:22:03.423Z,11.20
2018-12-03T04:24:30.853Z,11.20
2018-12-03T04:26:59.213Z,11.20
2018-12-03T04:29:26.568Z,11.20
2018-12-03T04:31:53.970Z,11.20
2018-12-03T04:34:21.405Z,11.20
2018-12-03T04:36:48.761Z,11.20
2018-12-03T04:39:16.130Z,11.20
2018-12-03T04:41:44.478Z,11.20
2018-12-03T04:44:11.855Z,11.20
2018-12-03T04:46:39.214Z,11.20
2018-12-03T04:49:06.574Z,11.20
2018-12-03T04:51:34.051Z,11.10
2018-12-03T04:54:01.502Z,11.10
2018-12-03T04:56:28.857Z,11.10
2018-12-03T04:58:56.218Z,11.10
2018-12-03T05:01:23.574Z,11.10
2018-12-03T05:03:50.921Z,11.10
2018-12-03T05:06:18.277Z,11.10
2018-12-03T05:08:45.705Z,11.10
2018-12-03T05:11:13.168Z,11.20
2018-12-03T05:13:40.508Z,11.20
2018-12-03T05:16:07.886Z,11.20
2018-12-03T05:18:35.321Z,11.20
2018-12-03T05:21:02.785Z,11.20
2018-12-03T05:23:30.152Z,11.20
2018-12-03T05:25:57.514Z,11.20
2018-12-03T05:28:24.963Z,11.30
2018-12-03T05:30:52.329Z,11.20
2018-12-03T05:33:20.357Z,11.20
2018-12-03T05:35:47.736Z,11.20
2018-12-03T05:38:15.249Z,11.30
2018-12-03T05:40:42.682Z,11.30
2018-12-03T05:43:10.108Z,11.30
2018-12-03T05:45:37.572Z,11.30
2018-12-03T05:48:05.265Z,11.30
2018-12-03T05:50:32.626Z,11.30
2018-12-03T05:53:00.006Z,11.30
2018-12-03T05:55:27.400Z,11.30
2018-12-03T05:57:54.753Z,11.30
2018-12-03T06:00:23.002Z,11.30
2018-12-03T06:11:44.986Z,11.40
2018-12-03T06:14:15.151Z,11.40
2018-12-03T06:19:47.049Z,11.40
2018-12-03T06:23:35.153Z,11.40
2018-12-03T06:26:10.513Z,11.30
2018-12-03T06:39:24.258Z,11.30
2018-12-03T06:53:31.874Z,11.30
2018-12-03T06:56:01.527Z,11.30
2018-12-03T06:58:29.959Z,11.30
2018-12-03T07:01:00.183Z,11.30
2018-12-03T07:03:29.540Z,11.20
2018-12-03T07:05:57.083Z,11.20
2018-12-03T07:08:25.167Z,11.30
2018-12-03T07:10:54.906Z,11.20
2018-12-03T07:16:17.487Z,11.30
2018-12-03T07:40:20.382Z,11.40
2018-12-03T07:43:03.035Z,11.50
2018-12-03T07:54:57.465Z,11.50
2018-12-03T08:03:19.470Z,11.60
2018-12-03T08:05:53.760Z,11.60
2018-12-03T08:08:41.255Z,11.60
2018-12-03T08:11:21.668Z,11.60
2018-12-03T08:14:08.888Z,11.60
2018-12-03T09:20:25.696Z,12.10
2018-12-03T09:23:04.990Z,12.20
2018-12-03T09:40:37.894Z,12.40
2018-12-03T10:02:33.347Z,12.40
2018-12-03T10:11:38.919Z,12.40
2018-12-03T10:14:14.899Z,12.40
2018-12-03T10:16:49.666Z,12.20
2018-12-03T10:22:14.541Z,12.20
2018-12-03T10:24:41.974Z,12.20
2018-12-03T10:34:08.179Z,12.40
2018-12-03T10:36:37.189Z,12.50
2018-12-03T10:39:08.083Z,12.60
2018-12-03T10:41:35.561Z,12.60
2018-12-03T10:46:56.542Z,12.80
2018-12-03T10:49:24.094Z,12.80
2018-12-03T10:51:54.911Z,12.80
2018-12-03T10:55:32.683Z,12.80
2018-12-03T11:11:28.012Z,12.70
2018-12-03T11:16:58.357Z,13.30
2018-12-03T11:19:58.608Z,13.50
2018-12-03T11:25:17.878Z,13.90
2018-12-03T11:27:49.077Z,14.10
2018-12-03T11:30:26.135Z,14.10
2018-12-03T11:32:54.483Z,14.00
2018-12-03T11:35:24.172Z,14.00
2018-12-03T11:37:53.334Z,14.00
2018-12-03T11:40:37.735Z,13.90
2018-12-03T11:48:29.529Z,13.70
2018-12-03T11:51:00.394Z,13.90
2018-12-03T11:53:29.592Z,14.00
2018-12-03T11:56:02.615Z,14.10
2018-12-03T11:58:32.903Z,14.20
2018-12-03T12:14:07.411Z,14.00
2018-12-03T12:19:29.817Z,14.10
2018-12-03T12:22:17.649Z,14.20
2018-12-03T12:25:04.219Z,14.30
2018-12-03T12:33:44.208Z,14.40
2018-12-03T12:39:13.231Z,14.30
2018-12-03T12:41:45.055Z,14.20
2018-12-03T12:44:16.851Z,14.20
2018-12-03T13:06:32.742Z,13.70
2018-12-03T13:09:00.261Z,13.60
2018-12-03T13:11:38.946Z,13.60
2018-12-03T13:17:03.074Z,13.50
2018-12-03T13:19:31.925Z,13.40
2018-12-03T13:41:14.853Z,13.20
2018-12-03T13:46:27.888Z,12.90
2018-12-03T13:51:03.553Z,12.80
2018-12-03T13:56:17.541Z,12.60
2018-12-03T13:58:45.674Z,12.60
2018-12-03T14:38:24.678Z,12.00
2018-12-03T14:40:59.074Z,12.00
2018-12-03T14:43:32.684Z,12.00
2018-12-03T14:48:45.604Z,12.00
2018-12-03T14:51:13.424Z,11.90
2018-12-03T14:53:40.881Z,11.80
2018-12-03T14:56:08.457Z,11.80
2018-12-03T14:58:36.209Z,11.70
2018-12-03T15:01:06.260Z,11.70
2018-12-03T15:03:36.139Z,11.80
2018-12-03T15:06:05.538Z,11.70
2018-12-03T15:08:33.889Z,11.80
2018-12-03T15:13:40.142Z,11.80
2018-12-03T15:16:08.121Z,11.70
2018-12-03T15:18:36.283Z,11.60
2018-12-03T15:21:06.726Z,11.60
2018-12-03T15:26:14.587Z,11.60
2018-12-03T15:28:42.503Z,11.70
2018-12-03T15:31:10.069Z,11.70
2018-12-03T15:36:52.292Z,11.80
2018-12-03T15:42:09.466Z,11.80
2018-12-03T15:44:37.323Z,11.70
2018-12-03T15:47:12.842Z,11.70
2018-12-03T15:49:44.650Z,11.70
2018-12-03T15:52:13.006Z,11.80
2018-12-03T15:54:41.458Z,11.80
2018-12-03T16:04:35.839Z,11.70
2018-12-03T16:09:54.851Z,11.60
2018-12-03T16:12:27.716Z,11.50
2018-12-03T16:14:58.693Z,11.40
2018-12-03T16:17:27.427Z,11.30
2018-12-03T16:22:53.664Z,11.20
2018-12-03T16:36:56.077Z,11.00
2018-12-03T16:39:24.762Z,11.10
2018-12-03T16:41:53.752Z,11.10
2018-12-03T16:44:25.205Z,11.10
2018-12-03T16:46:52.708Z,11.10
2018-12-03T16:52:08.893Z,11.10
2018-12-03T16:54:36.290Z,11.10
2018-12-03T16:57:03.795Z,11.00
2018-12-03T16:59:31.530Z,11.00
2018-12-03T17:01:58.993Z,11.00
2018-12-03T17:04:26.548Z,11.00
2018-12-03T17:06:54.260Z,11.00
2018-12-03T17:09:21.677Z,11.00
2018-12-03T17:11:49.168Z,10.90
2018-12-03T17:14:17.293Z,10.90
2018-12-03T17:16:44.739Z,10.80
2018-12-03T17:19:12.143Z,10.70
2018-12-03T17:22:12.742Z,10.70
2018-12-03T17:24:40.609Z,10.70
2018-12-03T17:27:08.142Z,10.60
2018-12-03T17:29:35.637Z,10.60
2018-12-03T17:32:03.119Z,10.50
2018-12-03T17:34:30.558Z,10.50
2018-12-03T17:36:58.078Z,10.50
2018-12-03T17:39:25.571Z,10.60
2018-12-03T17:41:53.082Z,10.50
2018-12-03T17:44:20.485Z,10.60
2018-12-03T17:46:47.913Z,10.50
2018-12-03T17:49:15.318Z,10.50
2018-12-03T17:51:42.768Z,10.40
2018-12-03T17:54:10.222Z,10.40
2018-12-03T17:56:37.994Z,10.50
2018-12-03T17:59:05.385Z,10.50
2018-12-03T18:01:32.985Z,10.40
2018-12-03T18:04:00.375Z,10.40
2018-12-03T18:06:27.821Z,10.30
2018-12-03T18:08:55.213Z,10.30
2018-12-03T18:11:22.630Z,10.40
2018-12-03T18:13:50.221Z,10.40
2018-12-03T18:16:17.738Z,10.40
2018-12-03T18:18:45.690Z,10.30
2018-12-03T18:21:13.197Z,10.30
2018-12-03T18:23:40.634Z,10.20
2018-12-03T18:26:08.156Z,10.20
2018-12-03T18:28:35.829Z,10.20
2018-12-03T18:31:03.240Z,10.10
2018-12-03T18:33:30.629Z,10.20
2018-12-03T18:35:58.031Z,10.20
2018-12-03T18:38:25.475Z,10.20
2018-12-03T18:40:52.930Z,10.10
2018-12-03T18:43:20.381Z,10.10
2018-12-03T18:45:47.842Z,10.00
2018-12-03T18:48:15.382Z,10.00
2018-12-03T18:50:44.242Z,9.90
2018-12-03T18:53:13.530Z,9.90
2018-12-03T18:55:41.166Z,9.90
2018-12-03T18:58:09.115Z,9.80
2018-12-03T19:00:36.501Z,9.70
2018-12-03T19:03:03.938Z,9.70
2018-12-03T19:05:31.817Z,9.60
2018-12-03T19:07:59.227Z,9.60
2018-12-03T19:10:26.615Z,9.60
2018-12-03T19:12:54.283Z,9.60
2018-12-03T19:15:21.675Z,9.50
2018-12-03T19:17:49.146Z,9.40
2018-12-03T19:20:16.542Z,9.40
2018-12-03T19:22:44.127Z,9.40
2018-12-03T19:25:11.582Z,9.40
2018-12-03T19:27:39.212Z,9.30
2018-12-03T19:30:08.180Z,9.40
2018-12-03T19:32:35.609Z,9.40
2018-12-03T19:35:03.309Z,9.50
2018-12-03T19:37:30.739Z,9.50
2018-12-03T19:39:58.126Z,9.50
2018-12-03T19:42:25.530Z,9.40
2018-12-03T19:44:53.070Z,9.50
2018-12-03T19:47:20.996Z,9.50
2018-12-03T19:49:48.391Z,9.50
2018-12-03T19:52:15.866Z,9.50
2018-12-03T19:54:44.190Z,9.50
2018-12-03T19:57:11.641Z,9.50
2018-12-03T19:59:42.994Z,9.40
2018-12-03T20:02:10.469Z,9.40
2018-12-03T20:04:43.613Z,9.40
2018-12-03T20:07:11.141Z,9.40
2018-12-03T20:09:38.625Z,9.40
2018-12-03T20:12:06.098Z,9.40
2018-12-03T20:14:33.533Z,9.40
2018-12-03T20:17:01.010Z,9.40
2018-12-03T20:19:28.561Z,9.40
2018-12-03T20:21:56.049Z,9.40
2018-12-03T20:24:24.538Z,9.30
2018-12-03T20:26:54.497Z,9.30
2018-12-03T20:29:23.829Z,9.40
2018-12-03T20:31:56.295Z,9.30
2018-12-03T20:34:26.345Z,9.30
2018-12-03T20:36:57.559Z,9.30
2018-12-03T20:39:31.545Z,9.30
2018-12-03T20:42:00.916Z,9.30
2018-12-03T20:44:29.710Z,9.30
2018-12-03T20:47:02.233Z,9.30
2018-12-03T20:50:33.357Z,9.30
2018-12-03T20:53:00.907Z,9.30
2018-12-03T20:55:29.878Z,9.30
2018-12-03T20:58:28.285Z,9.30
2018-12-03T21:00:55.778Z,9.30
2018-12-03T21:03:23.303Z,9.30
2018-12-03T21:05:51.393Z,9.30
2018-12-03T21:08:18.813Z,9.30
2018-12-03T21:10:46.221Z,9.30
2018-12-03T21:13:14.393Z,9.20
2018-12-03T21:15:41.858Z,9.10
2018-12-03T21:18:09.316Z,9.10
2018-12-03T21:20:38.882Z,9.10
2018-12-03T21:23:06.426Z,9.00
2018-12-03T21:25:33.925Z,9.00
2018-12-03T21:28:01.481Z,9.00
2018-12-03T21:30:29.046Z,9.00
2018-12-03T21:32:56.538Z,9.00
2018-12-03T21:35:24.023Z,9.00
2018-12-03T21:37:51.522Z,9.00
2018-12-03T21:40:19.078Z,9.00
2018-12-03T21:42:46.707Z,9.00
2018-12-03T21:45:14.134Z,9.00
2018-12-03T21:47:41.598Z,9.00
2018-12-03T21:50:09.638Z,9.00
2018-12-03T21:52:37.606Z,8.90
2018-12-03T21:55:05.660Z,8.90
2018-12-03T21:57:33.154Z,8.90
2018-12-03T22:00:00.604Z,8.90
2018-12-03T22:02:28.071Z,8.90
2018-12-03T22:04:56.104Z,8.90
2018-12-03T22:07:24.309Z,9.10
2018-12-03T22:09:51.701Z,9.10
2018-12-03T22:12:19.124Z,9.10
2018-12-03T22:14:46.570Z,9.20
2018-12-03T22:17:14.029Z,9.20
2018-12-03T22:19:41.484Z,9.20
2018-12-03T22:22:09.037Z,9.20
2018-12-03T22:24:36.520Z,9.20
2018-12-03T22:27:03.966Z,9.20
2018-12-03T22:29:31.414Z,9.10
2018-12-03T22:31:58.810Z,9.10
2018-12-03T22:34:26.250Z,9.10
2018-12-03T22:36:54.232Z,9.10
2018-12-03T22:39:21.757Z,9.20
2018-12-03T22:41:49.321Z,9.20
2018-12-03T22:44:16.810Z,9.20
2018-12-03T22:46:44.240Z,9.20
2018-12-03T22:49:12.729Z,9.40
2018-12-03T22:51:40.121Z,9.40
2018-12-03T22:54:07.561Z,9.40
2018-12-03T22:56:34.946Z,9.40
2018-12-03T22:59:02.551Z,9.50
2018-12-03T23:01:30.016Z,9.50
2018-12-03T23:03:57.558Z,9.50
2018-12-03T23:06:25.563Z,9.50
2018-12-03T23:08:53.018Z,9.50
2018-12-03T23:11:20.453Z,9.50
2018-12-03T23:13:47.940Z,9.50
2018-12-03T23:16:15.677Z,9.50
2018-12-03T23:18:43.225Z,9.60
2018-12-03T23:21:10.782Z,9.60
2018-12-03T23:23:38.265Z,9.60
2018-12-03T23:26:05.708Z,9.60
2018-12-03T23:28:33.705Z,9.60
2018-12-03T23:31:01.146Z,9.60
2018-12-03T23:33:28.604Z,9.50
2018-12-03T23:35:56.603Z,9.60
2018-12-03T23:38:24.029Z,9.60
2018-12-03T23:40:51.476Z,9.70
2018-12-03T23:43:18.954Z,9.70
2018-12-03T23:45:46.409Z,9.70
2018-12-03T23:48:13.922Z,9.70
2018-12-03T23:50:41.338Z,9.60
2018-12-03T23:53:08.739Z,9.60
2018-12-03T23:55:36.250Z,9.60
2018-12-03T23:58:04.127Z,9.60
